createdAt,value
2023-05-17T00:01:56.895Z,3.63
2023-05-17T00:04:27.166Z,4.35
2023-05-17T00:06:59.886Z,3.17
2023-05-17T00:09:30.887Z,4.07
2023-05-17T00:12:01.051Z,4.07
2023-05-17T00:14:31.387Z,4.25
2023-05-17T00:17:01.487Z,4.47
2023-05-17T00:19:31.692Z,4.88
2023-05-17T00:22:04.594Z,3.67
2023-05-17T00:24:34.753Z,4.00
2023-05-17T00:27:04.869Z,3.53
2023-05-17T00:29:35.054Z,3.88
2023-05-17T00:32:05.496Z,4.28
2023-05-17T00:34:35.874Z,4.13
2023-05-17T00:37:08.644Z,3.88
2023-05-17T00:39:38.770Z,4.13
2023-05-17T00:42:09.640Z,5.68
2023-05-17T00:44:39.771Z,4.25
2023-05-17T00:47:10.042Z,4.47
2023-05-17T00:49:40.435Z,4.47
2023-05-17T00:52:13.149Z,5.07
2023-05-17T00:54:43.687Z,4.55
2023-05-17T00:57:13.969Z,4.13
2023-05-17T00:59:45.280Z,5.22
2023-05-17T01:02:15.935Z,5.88
2023-05-17T01:04:46.751Z,3.95
2023-05-17T01:07:20.604Z,6.80
2023-05-17T01:09:51.091Z,5.07
2023-05-17T01:12:34.524Z,5.25
2023-05-17T01:15:16.227Z,4.78
2023-05-17T01:17:57.263Z,5.03
2023-05-17T01:20:31.881Z,4.18
2023-05-17T01:23:19.105Z,5.30
2023-05-17T01:26:00.455Z,4.07
2023-05-17T01:28:34.747Z,4.95
2023-05-17T01:31:06.959Z,4.47
2023-05-17T01:33:37.630Z,4.45
2023-05-17T01:36:09.093Z,4.43
2023-05-17T01:38:39.266Z,4.15
2023-05-17T01:41:16.916Z,5.03
2023-05-17T01:43:54.417Z,4.78
2023-05-17T01:46:30.737Z,4.35
2023-05-17T01:49:12.279Z,4.45
2023-05-17T01:51:49.312Z,4.32
2023-05-17T01:54:26.075Z,6.63
2023-05-17T01:57:01.814Z,5.65
2023-05-17T01:59:36.796Z,4.03
2023-05-17T02:02:09.524Z,6.30
2023-05-17T02:04:39.841Z,4.82
2023-05-17T02:07:10.201Z,6.18
2023-05-17T02:09:40.306Z,5.05
2023-05-17T02:12:11.258Z,4.53
2023-05-17T02:14:43.925Z,5.05
2023-05-17T02:17:14.288Z,4.82
2023-05-17T02:19:44.492Z,4.07
2023-05-17T02:22:14.631Z,7.00
2023-05-17T02:24:44.772Z,5.47
2023-05-17T02:27:14.908Z,4.35
2023-05-17T02:29:47.630Z,4.60
2023-05-17T02:32:17.797Z,5.45
2023-05-17T02:34:47.944Z,5.32
2023-05-17T02:37:18.105Z,5.55
2023-05-17T02:39:48.227Z,4.78
2023-05-17T02:42:18.743Z,4.55
2023-05-17T02:44:53.242Z,4.63
2023-05-17T02:47:24.017Z,4.95
2023-05-17T02:49:54.193Z,6.32
2023-05-17T02:52:24.372Z,4.55
2023-05-17T02:54:54.665Z,4.32
2023-05-17T02:57:24.808Z,3.92
2023-05-17T02:59:57.608Z,4.10
2023-05-17T03:02:27.957Z,5.65
2023-05-17T03:04:58.158Z,4.60
2023-05-17T03:07:28.395Z,5.65
2023-05-17T03:09:58.507Z,6.25
2023-05-17T03:12:29.677Z,7.80
2023-05-17T03:15:02.542Z,8.60
2023-05-17T03:17:32.856Z,6.65
2023-05-17T03:20:03.461Z,12.07
2023-05-17T03:22:33.600Z,11.02
2023-05-17T03:25:04.090Z,5.63
2023-05-17T03:27:34.276Z,7.10
2023-05-17T03:30:07.520Z,6.38
2023-05-17T03:32:37.756Z,7.65
2023-05-17T03:35:08.941Z,6.53
2023-05-17T03:40:10.412Z,7.28
2023-05-17T03:42:41.678Z,8.10
2023-05-17T03:45:15.176Z,7.43
2023-05-17T03:47:45.654Z,5.32
2023-05-17T03:50:16.038Z,7.07
2023-05-17T03:52:46.665Z,6.03
2023-05-17T03:55:16.848Z,7.07
2023-05-17T03:57:47.451Z,7.93
2023-05-17T04:00:22.126Z,6.43
2023-05-17T04:02:53.662Z,8.27
2023-05-17T04:05:24.241Z,6.55
2023-05-17T04:07:54.721Z,6.25
2023-05-17T04:10:24.992Z,8.23
2023-05-17T04:12:55.206Z,9.40
2023-05-17T04:15:28.243Z,6.18
2023-05-17T04:17:58.694Z,4.88
2023-05-17T04:20:29.178Z,8.20
2023-05-17T04:22:59.438Z,8.88
2023-05-17T04:25:29.762Z,12.00
2023-05-17T04:28:00.109Z,7.90
2023-05-17T04:30:32.984Z,5.65
2023-05-17T04:33:03.519Z,5.25
2023-05-17T04:35:33.702Z,6.88
2023-05-17T04:38:03.911Z,5.93
2023-05-17T04:40:34.036Z,5.93
2023-05-17T04:43:04.267Z,5.97
2023-05-17T04:45:37.923Z,5.38
2023-05-17T04:48:08.752Z,6.55
2023-05-17T04:50:38.968Z,5.68
2023-05-17T04:53:09.623Z,5.20
2023-05-17T04:55:39.918Z,6.63
2023-05-17T04:58:10.135Z,5.25
2023-05-17T05:00:43.094Z,5.03
2023-05-17T05:03:13.379Z,4.78
2023-05-17T05:05:43.635Z,4.95
2023-05-17T05:08:13.898Z,4.95
2023-05-17T05:10:44.061Z,4.95
2023-05-17T05:13:14.765Z,4.85
2023-05-17T05:15:47.780Z,5.30
2023-05-17T05:18:18.282Z,4.75
2023-05-17T05:20:51.065Z,5.28
2023-05-17T05:23:21.450Z,4.88
2023-05-17T05:25:51.551Z,4.68
2023-05-17T05:28:21.852Z,5.28
2023-05-17T05:30:59.591Z,6.72
2023-05-17T05:33:30.069Z,4.10
2023-05-17T05:36:00.340Z,4.85
2023-05-17T05:38:30.631Z,5.28
2023-05-17T05:41:01.221Z,4.50
2023-05-17T05:43:31.456Z,4.28
2023-05-17T05:46:04.600Z,4.53
2023-05-17T05:48:35.196Z,3.85
2023-05-17T05:51:05.610Z,5.65
2023-05-17T05:53:35.940Z,4.60
2023-05-17T05:56:06.240Z,4.25
2023-05-17T05:58:36.536Z,3.88
2023-05-17T06:01:09.345Z,3.72
2023-05-17T06:03:40.070Z,3.60
2023-05-17T06:06:10.614Z,3.45
2023-05-17T06:08:42.297Z,3.72
2023-05-17T06:11:12.439Z,3.63
2023-05-17T06:13:42.928Z,4.20
2023-05-17T06:16:15.674Z,3.92
2023-05-17T06:18:47.396Z,2.90
2023-05-17T06:21:18.816Z,3.58
2023-05-17T06:23:49.191Z,2.85
2023-05-17T06:26:19.330Z,3.28
2023-05-17T06:28:49.647Z,3.33
2023-05-17T06:31:22.366Z,3.00
2023-05-17T06:33:52.639Z,2.72
2023-05-17T06:36:22.887Z,3.10
2023-05-17T06:38:53.125Z,3.60
2023-05-17T06:41:23.329Z,2.70
2023-05-17T06:43:53.561Z,2.90
2023-05-17T06:46:26.249Z,3.83
2023-05-17T06:48:56.527Z,3.25
2023-05-17T06:51:27.244Z,2.47
2023-05-17T06:53:57.439Z,3.20
2023-05-17T06:56:28.868Z,3.15
2023-05-17T06:58:59.823Z,2.67
2023-05-17T07:01:32.973Z,2.65
2023-05-17T07:04:03.393Z,2.63
2023-05-17T07:06:33.693Z,3.17
2023-05-17T07:09:03.900Z,2.72
2023-05-17T07:11:34.061Z,3.50
2023-05-17T07:14:04.281Z,2.63
2023-05-17T07:16:37.466Z,2.65
2023-05-17T07:19:07.897Z,2.85
2023-05-17T07:21:38.120Z,2.58
2023-05-17T07:24:09.924Z,2.78
2023-05-17T07:26:40.106Z,4.20
2023-05-17T07:29:10.308Z,2.22
2023-05-17T07:31:43.061Z,2.17
2023-05-17T07:34:13.299Z,3.08
2023-05-17T07:36:43.469Z,1.90
2023-05-17T07:39:13.712Z,2.28
2023-05-17T07:41:43.832Z,2.15
2023-05-17T07:44:15.568Z,1.98
2023-05-17T07:46:48.424Z,2.05
2023-05-17T07:49:18.703Z,1.60
2023-05-17T07:51:51.196Z,2.30
2023-05-17T07:54:29.561Z,2.50
2023-05-17T07:57:00.000Z,2.13
2023-05-17T07:59:30.398Z,2.28
2023-05-17T08:02:03.233Z,1.88
2023-05-17T08:04:33.472Z,3.08
2023-05-17T08:07:03.699Z,2.25
2023-05-17T08:09:33.924Z,2.67
2023-05-17T08:12:04.162Z,2.85
2023-05-17T08:14:34.391Z,1.85
2023-05-17T08:17:07.437Z,2.50
2023-05-17T08:19:40.640Z,2.08
2023-05-17T08:22:10.945Z,2.55
2023-05-17T08:24:41.113Z,2.90
2023-05-17T08:27:11.347Z,2.70
2023-05-17T08:29:41.707Z,2.65
2023-05-17T08:32:14.508Z,2.00
2023-05-17T08:34:44.965Z,2.28
2023-05-17T08:39:45.228Z,2.00
2023-05-17T08:42:16.583Z,3.03
2023-05-17T08:44:47.674Z,3.67
2023-05-17T08:47:26.340Z,3.53
2023-05-17T08:50:01.163Z,2.88
2023-05-17T08:52:34.285Z,2.92
2023-05-17T08:55:06.329Z,2.58
2023-05-17T08:57:38.433Z,2.38
2023-05-17T09:00:15.633Z,2.58
2023-05-17T09:02:49.325Z,2.88
2023-05-17T09:05:20.711Z,2.17
2023-05-17T09:07:53.137Z,2.17
2023-05-17T09:10:23.445Z,2.60
2023-05-17T09:12:55.981Z,2.35
2023-05-17T09:15:27.377Z,2.17
2023-05-17T09:18:01.273Z,2.88
2023-05-17T09:20:35.397Z,2.55
2023-05-17T09:23:05.947Z,3.15
2023-05-17T09:25:36.895Z,2.83
2023-05-17T09:28:09.074Z,2.38
2023-05-17T09:30:42.164Z,2.30
2023-05-17T09:33:18.479Z,3.05
2023-05-17T09:35:49.463Z,2.42
2023-05-17T09:38:19.830Z,2.33
2023-05-17T09:40:51.758Z,2.47
2023-05-17T09:43:26.667Z,2.67
2023-05-17T09:46:00.866Z,2.67
2023-05-17T09:48:34.187Z,3.70
2023-05-17T09:51:04.989Z,2.85
2023-05-17T09:53:40.070Z,2.95
2023-05-17T09:56:10.659Z,2.45
2023-05-17T09:58:41.502Z,2.65
2023-05-17T10:01:12.447Z,2.85
2023-05-17T10:03:45.886Z,3.22
2023-05-17T10:06:27.797Z,2.83
2023-05-17T10:09:07.534Z,2.80
2023-05-17T10:11:39.507Z,3.38
2023-05-17T10:14:11.835Z,3.50
2023-05-17T10:16:43.369Z,3.40
2023-05-17T10:19:19.880Z,3.35
2023-05-17T10:21:51.831Z,3.83
2023-05-17T10:24:23.963Z,3.60
2023-05-17T10:26:54.693Z,2.17
2023-05-17T10:29:25.102Z,2.80
2023-05-17T10:31:55.748Z,2.70
2023-05-17T10:34:29.817Z,3.17
2023-05-17T10:37:00.580Z,1.90
2023-05-17T10:39:34.346Z,2.80
2023-05-17T10:42:14.414Z,1.85
2023-05-17T10:44:45.663Z,3.15
2023-05-17T10:47:18.829Z,2.50
2023-05-17T10:49:52.183Z,3.63
2023-05-17T10:52:25.121Z,2.22
2023-05-17T10:54:57.120Z,3.40
2023-05-17T10:57:46.821Z,2.58
2023-05-17T11:00:28.049Z,2.42
2023-05-17T11:03:14.380Z,2.55
2023-05-17T11:06:13.241Z,2.88
2023-05-17T11:09:08.285Z,1.95
2023-05-17T11:11:38.637Z,2.33
2023-05-17T11:14:09.116Z,2.55
2023-05-17T11:16:40.519Z,2.28
2023-05-17T11:19:11.964Z,2.30
2023-05-17T11:21:52.164Z,2.40
2023-05-17T11:24:29.388Z,2.95
2023-05-17T11:27:04.066Z,2.90
2023-05-17T11:29:34.476Z,2.75
2023-05-17T11:32:09.193Z,2.50
2023-05-17T11:34:39.804Z,2.00
2023-05-17T11:37:29.746Z,2.55
2023-05-17T11:40:07.178Z,2.92
2023-05-17T11:42:38.514Z,3.95
2023-05-17T11:45:09.474Z,2.65
2023-05-17T11:47:43.615Z,1.83
2023-05-17T11:50:15.201Z,2.13
2023-05-17T11:52:48.236Z,2.70
2023-05-17T11:55:18.959Z,3.58
2023-05-17T11:57:49.504Z,2.20
2023-05-17T12:00:20.593Z,2.58
2023-05-17T12:02:53.940Z,2.88
2023-05-17T12:05:24.414Z,2.17
2023-05-17T12:07:57.432Z,2.35
2023-05-17T12:10:28.152Z,2.72
2023-05-17T12:12:59.207Z,3.70
2023-05-17T12:15:30.596Z,2.38
2023-05-17T12:18:01.122Z,2.70
2023-05-17T12:20:33.568Z,2.72
2023-05-17T12:23:06.755Z,2.42
2023-05-17T12:25:37.105Z,2.60
2023-05-17T12:28:17.500Z,2.80
2023-05-17T12:30:48.518Z,1.95
2023-05-17T12:33:19.175Z,2.10
2023-05-17T12:35:49.752Z,2.75
2023-05-17T12:38:23.135Z,2.42
2023-05-17T12:40:53.536Z,2.10
2023-05-17T12:45:56.578Z,2.85
2023-05-17T12:48:30.065Z,2.65
2023-05-17T12:51:00.650Z,2.05
2023-05-17T12:53:40.942Z,2.70
2023-05-17T12:56:11.936Z,3.03
2023-05-17T12:58:42.402Z,2.88
2023-05-17T13:03:45.397Z,1.98
2023-05-17T13:06:17.257Z,3.47
2023-05-17T13:09:01.842Z,2.42
2023-05-17T13:11:32.267Z,2.45
2023-05-17T13:16:33.566Z,3.42
2023-05-17T13:19:04.156Z,2.60
2023-05-17T13:21:34.589Z,2.42
2023-05-17T13:24:07.716Z,2.58
2023-05-17T13:26:38.149Z,2.83
2023-05-17T13:34:08.890Z,2.42
2023-05-17T13:36:39.415Z,2.67
2023-05-17T13:41:43.403Z,2.75
2023-05-17T13:44:14.128Z,2.25
2023-05-17T13:46:44.656Z,2.83
2023-05-17T13:51:45.503Z,3.10
2023-05-17T13:56:48.587Z,2.53
2023-05-17T13:59:19.026Z,2.42
2023-05-17T14:01:49.840Z,2.63
2023-05-17T14:04:20.224Z,2.08
2023-05-17T14:06:54.790Z,2.03
2023-05-17T14:09:25.484Z,1.67
2023-05-17T14:12:00.964Z,2.00
2023-05-17T14:14:31.673Z,3.00
2023-05-17T14:17:02.147Z,2.33
2023-05-17T14:19:32.583Z,3.20
2023-05-17T14:27:08.334Z,2.50
2023-05-17T14:29:38.715Z,2.35
2023-05-17T14:32:09.711Z,2.58
2023-05-17T14:34:40.051Z,2.13
2023-05-17T14:37:10.804Z,1.92
2023-05-17T14:39:41.281Z,2.15
2023-05-17T14:42:14.869Z,4.22
2023-05-17T14:44:45.269Z,2.67
2023-05-17T14:47:16.745Z,1.75
2023-05-17T14:49:47.180Z,2.45
2023-05-17T14:52:17.687Z,1.48
2023-05-17T14:54:48.132Z,2.03
2023-05-17T14:57:21.982Z,2.67
2023-05-17T14:59:52.581Z,3.03
2023-05-17T15:04:53.328Z,3.25
2023-05-17T15:09:54.035Z,1.92
2023-05-17T15:12:27.254Z,2.47
2023-05-17T15:14:57.630Z,2.22
2023-05-17T15:17:28.241Z,2.38
2023-05-17T15:22:29.591Z,1.92
2023-05-17T15:25:00.336Z,1.75
2023-05-17T15:27:33.471Z,2.70
2023-05-17T15:30:03.987Z,1.90
2023-05-17T15:32:34.524Z,1.95
2023-05-17T15:35:05.852Z,2.08
2023-05-17T15:37:36.450Z,1.85
2023-05-17T15:40:10.365Z,2.13
2023-05-17T15:42:43.386Z,2.28
2023-05-17T15:45:14.123Z,2.65
2023-05-17T15:52:45.013Z,1.88
2023-05-17T15:55:15.412Z,1.90
2023-05-17T15:57:48.540Z,1.90
2023-05-17T16:00:19.309Z,2.67
2023-05-17T16:02:49.881Z,2.60
2023-05-17T16:05:20.242Z,3.22
2023-05-17T16:07:50.620Z,1.95
2023-05-17T16:10:21.213Z,1.85
2023-05-17T16:12:54.230Z,2.00
2023-05-17T16:15:24.852Z,2.28
2023-05-17T16:17:55.412Z,3.20
2023-05-17T16:22:56.481Z,1.83
2023-05-17T16:25:28.806Z,2.40
2023-05-17T16:28:02.060Z,2.30
2023-05-17T16:30:32.845Z,2.15
2023-05-17T16:33:04.504Z,2.85
2023-05-17T16:35:36.722Z,2.50
2023-05-17T16:38:07.104Z,2.90
2023-05-17T16:40:37.510Z,1.80
2023-05-17T16:43:11.519Z,1.77
2023-05-17T16:45:41.921Z,1.88
2023-05-17T16:48:12.397Z,1.77
2023-05-17T16:50:42.927Z,2.28
2023-05-17T16:53:13.425Z,2.05
2023-05-17T16:55:43.898Z,2.03
2023-05-17T16:58:16.920Z,2.35
2023-05-17T17:00:47.517Z,2.60
2023-05-17T17:03:18.015Z,2.75
2023-05-17T17:05:48.478Z,2.28
2023-05-17T17:08:19.060Z,2.75
2023-05-17T17:10:49.434Z,1.75
2023-05-17T17:13:22.851Z,1.98
2023-05-17T17:15:53.945Z,1.92
2023-05-17T17:18:24.348Z,1.77
2023-05-17T17:20:54.932Z,2.40
2023-05-17T17:23:25.345Z,2.22
2023-05-17T17:25:55.763Z,2.10
2023-05-17T17:28:29.093Z,2.50
2023-05-17T17:30:59.479Z,2.17
2023-05-17T17:33:30.010Z,2.55
2023-05-17T17:36:00.387Z,3.83
2023-05-17T17:38:30.986Z,2.80
2023-05-17T17:41:01.358Z,3.08
2023-05-17T17:43:34.392Z,2.03
2023-05-17T17:46:04.780Z,2.20
2023-05-17T17:48:35.225Z,2.72
2023-05-17T17:51:05.608Z,2.17
2023-05-17T17:53:36.192Z,1.83
2023-05-17T17:56:07.348Z,1.75
2023-05-17T17:58:40.427Z,2.67
2023-05-17T18:01:10.839Z,2.80
2023-05-17T18:03:41.327Z,2.40
2023-05-17T18:06:11.741Z,2.33
2023-05-17T18:08:42.166Z,2.85
2023-05-17T18:11:12.532Z,2.20
2023-05-17T18:13:45.562Z,2.63
2023-05-17T18:16:16.002Z,2.60
2023-05-17T18:18:47.337Z,3.40
2023-05-17T18:21:17.770Z,2.30
2023-05-17T18:23:48.328Z,2.40
2023-05-17T18:26:18.729Z,2.20
2023-05-17T18:28:51.771Z,3.17
2023-05-17T18:31:22.177Z,4.32
2023-05-17T18:33:54.304Z,2.85
2023-05-17T18:36:26.157Z,4.68
2023-05-17T18:38:58.796Z,2.70
2023-05-17T18:41:29.268Z,3.53
2023-05-17T18:44:03.096Z,2.97
2023-05-17T18:46:33.525Z,4.03
2023-05-17T18:49:04.519Z,1.80
2023-05-17T18:51:35.010Z,2.45
2023-05-17T18:54:05.457Z,3.05
2023-05-17T18:56:36.084Z,2.55
2023-05-17T18:59:09.320Z,2.70
2023-05-17T19:01:39.793Z,2.80
2023-05-17T19:04:10.273Z,2.78
2023-05-17T19:06:41.651Z,3.47
2023-05-17T19:09:12.378Z,3.10
2023-05-17T19:11:42.869Z,2.63
2023-05-17T19:14:16.019Z,2.28
2023-05-17T19:16:46.487Z,2.70
2023-05-17T19:19:16.932Z,2.53
2023-05-17T19:21:47.311Z,3.13
2023-05-17T19:24:17.823Z,2.65
2023-05-17T19:26:48.237Z,2.95
2023-05-17T19:29:21.321Z,3.88
2023-05-17T19:31:52.006Z,3.28
2023-05-17T19:34:22.671Z,2.40
2023-05-17T19:36:53.072Z,3.42
2023-05-17T19:39:23.489Z,2.97
2023-05-17T19:41:53.849Z,3.38
2023-05-17T19:44:26.980Z,4.88
2023-05-17T19:46:57.653Z,3.05
2023-05-17T19:49:28.110Z,2.70
2023-05-17T19:52:00.850Z,3.00
2023-05-17T19:54:31.779Z,3.00
2023-05-17T20:02:05.683Z,2.65
2023-05-17T20:04:36.143Z,3.28
2023-05-17T20:07:06.622Z,3.53
2023-05-17T20:09:37.077Z,3.38
2023-05-17T20:12:07.795Z,3.35
2023-05-17T20:14:38.450Z,2.72
2023-05-17T20:17:13.081Z,3.38
2023-05-17T20:19:43.866Z,3.20
2023-05-17T20:22:14.387Z,2.33
2023-05-17T20:24:44.946Z,4.35
2023-05-17T20:27:15.720Z,3.00
2023-05-17T20:29:46.156Z,3.08
2023-05-17T20:32:19.109Z,3.70
2023-05-17T20:34:49.657Z,3.92
2023-05-17T20:37:20.028Z,5.40
2023-05-17T20:39:51.818Z,3.00
2023-05-17T20:42:22.643Z,2.55
2023-05-17T20:44:53.940Z,5.15
2023-05-17T20:47:29.319Z,3.47
2023-05-17T20:50:00.122Z,4.55
2023-05-17T20:52:38.694Z,5.88
2023-05-17T20:55:11.054Z,7.25
2023-05-17T20:57:42.144Z,4.88
2023-05-17T21:00:16.140Z,4.25
2023-05-17T21:02:49.169Z,4.68
2023-05-17T21:05:19.614Z,5.53
2023-05-17T21:07:50.661Z,8.63
2023-05-17T21:12:51.323Z,3.00
2023-05-17T21:15:21.763Z,3.78
2023-05-17T21:17:54.913Z,4.18
2023-05-17T21:20:25.363Z,6.10
2023-05-17T21:22:55.886Z,4.82
2023-05-17T21:25:26.533Z,3.03
2023-05-17T21:27:56.997Z,2.67
2023-05-17T21:30:27.658Z,2.83
2023-05-17T21:33:00.782Z,2.47
2023-05-17T21:35:31.472Z,2.35
2023-05-17T21:38:01.786Z,2.47
2023-05-17T21:40:32.581Z,2.50
2023-05-17T21:43:03.196Z,3.45
2023-05-17T21:45:33.822Z,2.58
2023-05-17T21:48:06.990Z,2.72
2023-05-17T21:50:38.049Z,2.53
2023-05-17T21:53:08.420Z,3.03
2023-05-17T21:55:51.299Z,2.33
2023-05-17T21:58:30.405Z,2.88
2023-05-17T22:01:01.355Z,3.08
2023-05-17T22:03:34.508Z,2.58
2023-05-17T22:06:04.974Z,3.33
2023-05-17T22:08:35.349Z,3.15
2023-05-17T22:11:06.054Z,2.25
2023-05-17T22:13:36.408Z,2.35
2023-05-17T22:16:06.932Z,2.88
2023-05-17T22:18:40.045Z,2.38
2023-05-17T22:21:10.617Z,2.28
2023-05-17T22:23:42.307Z,1.98
2023-05-17T22:26:12.798Z,2.35
2023-05-17T22:28:43.198Z,3.83
2023-05-17T22:31:15.060Z,2.63
2023-05-17T22:33:48.250Z,2.47
2023-05-17T22:36:19.531Z,2.65
2023-05-17T22:38:49.976Z,1.88
2023-05-17T22:41:20.495Z,2.63
2023-05-17T22:43:50.891Z,2.53
2023-05-17T22:46:21.411Z,2.50
2023-05-17T22:48:54.502Z,2.60
2023-05-17T22:51:24.882Z,3.00
2023-05-17T22:53:55.471Z,2.60
2023-05-17T22:56:26.445Z,3.33
2023-05-17T22:58:56.917Z,2.72
2023-05-17T23:01:27.334Z,3.08
2023-05-17T23:04:00.382Z,2.80
2023-05-17T23:06:34.412Z,2.65
2023-05-17T23:09:06.304Z,3.20
2023-05-17T23:11:41.187Z,2.75
2023-05-17T23:14:11.559Z,2.70
2023-05-17T23:16:42.166Z,2.85
2023-05-17T23:19:17.335Z,2.90
2023-05-17T23:21:49.239Z,3.58
2023-05-17T23:24:19.613Z,3.58
2023-05-17T23:26:50.633Z,3.00
2023-05-17T23:29:21.109Z,2.90
2023-05-17T23:31:51.759Z,3.08
2023-05-17T23:34:25.402Z,2.25
2023-05-17T23:36:55.808Z,3.75
2023-05-17T23:39:26.159Z,3.15
2023-05-17T23:41:56.588Z,2.63
2023-05-17T23:44:26.970Z,2.22
2023-05-17T23:46:57.565Z,2.55
2023-05-17T23:49:30.565Z,3.33
2023-05-17T23:52:02.259Z,3.20
2023-05-17T23:54:32.636Z,2.15
2023-05-17T23:57:03.027Z,3.17
2023-05-17T23:59:33.454Z,3.35
